| time (UTC) | temp F | wind direction | speed MPH | gust MPH | rain 1hr in | rain 24hr in | rain mn in | humidity % | barometer mb |
| 20260508041729 | 54 | 0 | 2.0 | 2.0 | 0.00 | 0.00 | 0.00 | 92 | 1033.9 |
| 20260508041226 | 54 | 14 | 0.0 | 1.0 | 0.00 | 0.00 | 0.00 | 89 | 1033.9 |
| 20260508040723 | 54 | 8 | 0.0 | 0.0 | 0.00 | 0.00 | 0.00 | 89 | 1033.7 |
| 20260508040220 | 54 | 8 | 0.0 | 0.0 | 0.00 | 0.00 | 0.00 | 91 | 1033.5 |
| 20260508035717 | 54 | 8 | 0.0 | 1.0 | 0.00 | 0.15 | 0.15 | 92 | 1033.9 |
| 20260508035215 | 53 | 23 | 0.0 | 0.0 | 0.00 | 0.15 | 0.15 | 92 | 1033.5 |
| 20260508034711 | 53 | 15 | 0.0 | 1.0 | 0.00 | 0.15 | 0.15 | 93 | 1033.5 |
| 20260508034209 | 53 | 0 | 0.0 | 0.0 | 0.00 | 0.15 | 0.15 | 94 | 1033.5 |
| 20260508033705 | 53 | 0 | 1.0 | 2.0 | 0.00 | 0.15 | 0.15 | 95 | 1033.5 |
| 20260508033204 | 53 | 8 | 0.0 | 1.0 | 0.00 | 0.15 | 0.15 | 96 | 1033.4 |
| 20260508032701 | 53 | 0 | 2.0 | 2.0 | 0.00 | 0.15 | 0.15 | 96 | 1033.7 |
| 20260508032158 | 53 | 0 | 2.0 | 2.0 | 0.00 | 0.15 | 0.15 | 96 | 1033.7 |
| 20260508031654 | 53 | 352 | 2.0 | 3.0 | 0.00 | 0.15 | 0.15 | 97 | 1033.5 |
| 20260508031151 | 53 | 352 | 3.0 | 3.0 | 0.00 | 0.15 | 0.15 | 96 | 1033.7 |
| 20260508030647 | 53 | 355 | 3.0 | 3.0 | 0.00 | 0.15 | 0.15 | 96 | 1033.7 |
| 20260508030145 | 53 | 0 | 3.0 | 3.0 | 0.00 | 0.15 | 0.15 | 95 | 1033.4 |
| 20260508025641 | 53 | 0 | 0.0 | 1.0 | 0.00 | 0.15 | 0.15 | 95 | 1033.3 |
| 20260508025138 | 54 | 0 | 0.0 | 1.0 | 0.00 | 0.15 | 0.15 | 95 | 1033.1 |
| 20260508024634 | 54 | 18 | 1.0 | 2.0 | 0.00 | 0.15 | 0.15 | 94 | 1033.2 |
| 20260508024132 | 54 | 157 | 0.0 | 0.0 | 0.00 | 0.15 | 0.15 | 93 | 1033.2 |
| 20260508023628 | 55 | 159 | 2.0 | 2.0 | 0.00 | 0.15 | 0.15 | 91 | 1033.2 |
| 20260508023126 | 55 | 0 | 0.0 | 0.0 | 0.00 | 0.15 | 0.15 | 91 | 1033.2 |
| 20260508022621 | 55 | 0 | 0.0 | 0.0 | 0.00 | 0.15 | 0.15 | 91 | 1033.3 |
| 20260508022119 | 55 | 0 | 1.0 | 1.0 | 0.00 | 0.15 | 0.15 | 91 | 1033.2 |
| 20260508021614 | 55 | 81 | 0.0 | 0.0 | 0.00 | 0.15 | 0.15 | 92 | 1033.1 |
| 20260508021110 | 56 | 81 | 0.0 | 1.0 | 0.00 | 0.15 | 0.15 | 91 | 1033.4 |
| 20260508020608 | 56 | 23 | 0.0 | 0.0 | 0.00 | 0.15 | 0.15 | 90 | 1033.0 |
| 20260508020105 | 56 | 23 | 0.0 | 1.0 | 0.00 | 0.15 | 0.15 | 89 | 1032.9 |
| 20260508015603 | 56 | 0 | 0.0 | 0.0 | 0.00 | 0.15 | 0.15 | 90 | 1032.5 |
| 20260508015059 | 56 | 0 | 0.0 | 0.0 | 0.00 | 0.15 | 0.15 | 89 | 1032.5 |
| 20260508014555 | 56 | 0 | 1.0 | 2.0 | 0.00 | 0.15 | 0.15 | 86 | 1032.5 |
| 20260508014052 | 56 | 352 | 0.0 | 1.0 | 0.00 | 0.15 | 0.15 | 87 | 1032.4 |
| 20260508013548 | 56 | 5 | 2.0 | 3.0 | 0.00 | 0.15 | 0.15 | 89 | 1032.5 |
| 20260508013045 | 56 | 342 | 1.0 | 2.0 | 0.00 | 0.15 | 0.15 | 86 | 1032.4 |
| 20260508012543 | 56 | 348 | 1.0 | 2.0 | 0.00 | 0.15 | 0.15 | 87 | 1032.1 |
| 20260508012040 | 56 | 0 | 2.0 | 2.0 | 0.00 | 0.15 | 0.15 | 86 | 1032.3 |
| 20260508011538 | 55 | 0 | 2.0 | 2.0 | 0.00 | 0.15 | 0.15 | 85 | 1032.1 |
| 20260508011035 | 55 | 354 | 1.0 | 2.0 | 0.00 | 0.15 | 0.15 | 85 | 1032.1 |
| 20260508010532 | 55 | 0 | 0.0 | 2.0 | 0.00 | 0.15 | 0.15 | 86 | 1032.2 |
| 20260508010029 | 56 | 5 | 2.0 | 2.0 | 0.00 | 0.15 | 0.15 | 86 | 1031.8 |
| 20260508005526 | 55 | 0 | 0.0 | 3.0 | 0.00 | 0.15 | 0.15 | 89 | 1032.2 |
| 20260508005023 | 55 | 351 | 2.0 | 2.0 | 0.00 | 0.15 | 0.15 | 88 | 1032.1 |
| 20260508004519 | 56 | 7 | 1.0 | 1.0 | 0.00 | 0.15 | 0.15 | 88 | 1032.1 |
| 20260508004015 | 55 | 0 | 1.0 | 2.0 | 0.00 | 0.15 | 0.15 | 89 | 1031.9 |
| 20260508003512 | 56 | 356 | 2.0 | 2.0 | 0.00 | 0.15 | 0.15 | 90 | 1031.7 |
| 20260508003010 | 56 | 0 | 0.0 | 2.0 | 0.00 | 0.15 | 0.15 | 90 | 1031.6 |
| 20260508002505 | 56 | 4 | 2.0 | 2.0 | 0.00 | 0.15 | 0.15 | 89 | 1031.5 |
| 20260508002003 | 57 | 0 | 2.0 | 2.0 | 0.00 | 0.15 | 0.15 | 89 | 1031.4 |
| 20260508001458 | 57 | 0 | 2.0 | 2.0 | 0.00 | 0.15 | 0.15 | 89 | 1031.3 |
| 20260508000955 | 57 | 0 | 3.0 | 3.0 | 0.00 | 0.15 | 0.15 | 90 | 1031.4 |
| 20260508000450 | 58 | 348 | 2.0 | 3.0 | 0.00 | 0.15 | 0.15 | 90 | 1031.4 |
| 20260507235948 | 59 | 350 | 2.0 | 2.0 | 0.00 | 0.15 | 0.15 | 90 | 1031.4 |
| 20260507235445 | 59 | 0 | 0.0 | 1.0 | 0.00 | 0.15 | 0.15 | 87 | 1031.4 |
| 20260507234942 | 59 | 352 | 0.0 | 1.0 | 0.00 | 0.15 | 0.15 | 83 | 1031.4 |
| 20260507234439 | 59 | 8 | 0.0 | 0.0 | 0.00 | 0.15 | 0.15 | 79 | 1031.2 |
| 20260507233935 | 59 | 8 | 0.0 | 0.0 | 0.00 | 0.15 | 0.15 | 79 | 1031.4 |
| 20260507233432 | 60 | 8 | 0.0 | 0.0 | 0.00 | 0.15 | 0.15 | 80 | 1031.4 |
| 20260507232931 | 60 | 352 | 0.0 | 0.0 | 0.00 | 0.15 | 0.15 | 79 | 1031.5 |
| 20260507232426 | 60 | 352 | 0.0 | 0.0 | 0.00 | 0.15 | 0.15 | 81 | 1031.3 |
| 20260507231924 | 61 | 352 | 0.0 | 0.0 | 0.00 | 0.15 | 0.15 | 80 | 1031.4 |
| 20260507231420 | 61 | 349 | 0.0 | 2.0 | 0.00 | 0.15 | 0.15 | 80 | 1031.5 |
| 20260507230917 | 60 | 0 | 0.0 | 1.0 | 0.00 | 0.15 | 0.15 | 79 | 1031.6 |
| 20260507230415 | 61 | 18 | 0.0 | 2.0 | 0.00 | 0.15 | 0.15 | 77 | 1031.4 |
| 20260507225914 | 63 | 26 | 0.0 | 0.0 | 0.00 | 0.15 | 0.15 | 76 | 1031.6 |
| 20260507225411 | 64 | 0 | 0.0 | 0.0 | 0.00 | 0.15 | 0.15 | 75 | 1031.5 |
| 20260507224907 | 64 | 15 | 2.0 | 3.0 | 0.00 | 0.15 | 0.15 | 70 | 1031.4 |
| 20260507224403 | 64 | 21 | 2.0 | 3.0 | 0.00 | 0.15 | 0.15 | 70 | 1031.3 |
| 20260507223900 | 64 | 28 | 2.0 | 3.0 | 0.00 | 0.15 | 0.15 | 69 | 1031.5 |
| 20260507223356 | 64 | 145 | 1.0 | 2.0 | 0.00 | 0.15 | 0.15 | 67 | 1031.8 |
| 20260507222854 | 65 | 0 | 0.0 | 2.0 | 0.00 | 0.15 | 0.15 | 70 | 1031.6 |
| 20260507222349 | 65 | 353 | 1.0 | 2.0 | 0.00 | 0.15 | 0.15 | 69 | 1031.7 |
| 20260507221847 | 65 | 57 | 2.0 | 3.0 | 0.00 | 0.15 | 0.15 | 68 | 1031.6 |
| 20260507221343 | 66 | 114 | 0.0 | 2.0 | 0.00 | 0.15 | 0.15 | 65 | 1031.7 |
| 20260507220839 | 64 | 54 | 1.0 | 3.0 | 0.00 | 0.15 | 0.15 | 72 | 1031.7 |
| 20260507220338 | 64 | 35 | 3.0 | 3.0 | 0.00 | 0.15 | 0.15 | 73 | 1031.3 |
| 20260507215833 | 64 | 21 | 2.0 | 4.0 | 0.00 | 0.15 | 0.15 | 72 | 1031.4 |
| 20260507215331 | 64 | 53 | 2.0 | 4.0 | 0.00 | 0.15 | 0.15 | 70 | 1031.4 |
| 20260507214828 | 64 | 11 | 2.0 | 2.0 | 0.00 | 0.15 | 0.15 | 74 | 1031.2 |
| 20260507214326 | 66 | 26 | 1.0 | 3.0 | 0.00 | 0.15 | 0.15 | 71 | 1031.3 |
| 20260507213820 | 66 | 5 | 0.0 | 3.0 | 0.00 | 0.15 | 0.15 | 74 | 1031.4 |
| 20260507213317 | 64 | 24 | 2.0 | 5.0 | 0.00 | 0.15 | 0.15 | 74 | 1031.4 |
| 20260507212814 | 65 | 0 | 2.0 | 2.0 | 0.00 | 0.15 | 0.15 | 75 | 1031.3 |
| 20260507212310 | 64 | 42 | 3.0 | 6.0 | 0.00 | 0.15 | 0.15 | 76 | 1031.2 |
| 20260507211806 | 63 | 356 | 2.0 | 4.0 | 0.00 | 0.15 | 0.15 | 78 | 1031.2 |
| 20260507211303 | 62 | 14 | 1.0 | 3.0 | 0.00 | 0.15 | 0.15 | 84 | 1031.1 |
| 20260507210800 | 61 | 345 | 0.0 | 0.0 | 0.00 | 0.15 | 0.15 | 84 | 1031.1 |
| 20260507210257 | 60 | 26 | 2.0 | 3.0 | 0.00 | 0.15 | 0.15 | 83 | 1031.2 |
| 20260507205753 | 60 | 346 | 0.0 | 2.0 | 0.00 | 0.15 | 0.15 | 86 | 1031.1 |
| 20260507205251 | 60 | 5 | 1.0 | 2.0 | 0.00 | 0.15 | 0.15 | 85 | 1031.2 |
| 20260507204746 | 60 | 353 | 1.0 | 1.0 | 0.00 | 0.15 | 0.15 | 85 | 1031.2 |
| 20260507204245 | 60 | 0 | 0.0 | 0.0 | 0.00 | 0.15 | 0.15 | 84 | 1031.1 |
| 20260507203742 | 60 | 0 | 0.0 | 0.0 | 0.00 | 0.15 | 0.15 | 82 | 1031.0 |
| 20260507203239 | 61 | 346 | 1.0 | 1.0 | 0.00 | 0.15 | 0.15 | 79 | 1030.9 |
| 20260507202735 | 62 | 76 | 0.0 | 5.0 | 0.00 | 0.15 | 0.15 | 82 | 1031.0 |
| 20260507202232 | 62 | 337 | 2.0 | 2.0 | 0.00 | 0.15 | 0.15 | 82 | 1030.9 |
| 20260507201727 | 62 | 337 | 0.0 | 1.0 | 0.00 | 0.15 | 0.15 | 84 | 1031.1 |
| 20260507201224 | 60 | 352 | 0.0 | 0.0 | 0.00 | 0.15 | 0.15 | 82 | 1031.0 |
| 20260507200720 | 59 | 23 | 0.0 | 1.0 | 0.00 | 0.15 | 0.15 | 85 | 1031.2 |
| 20260507200216 | 59 | 0 | 0.0 | 0.0 | 0.00 | 0.15 | 0.15 | 87 | 1031.2 |
| 20260507195713 | 58 | 180 | 0.0 | 0.0 | 0.00 | 0.15 | 0.15 | 86 | 1031.2 |
| 20260507195210 | 59 | 180 | 0.0 | 0.0 | 0.00 | 0.15 | 0.15 | 87 | 1031.4 |
| 20260507194707 | 60 | 180 | 0.0 | 0.0 | 0.00 | 0.15 | 0.15 | 88 | 1031.4 |
| 20260507194203 | 60 | 180 | 0.0 | 0.0 | 0.00 | 0.15 | 0.15 | 88 | 1031.4 |
| 20260507193700 | 60 | 180 | 0.0 | 0.0 | 0.00 | 0.15 | 0.15 | 87 | 1031.6 |
| 20260507193157 | 60 | 0 | 0.0 | 2.0 | 0.00 | 0.15 | 0.15 | 87 | 1031.7 |
| 20260507192652 | 59 | 180 | 0.0 | 0.0 | 0.00 | 0.15 | 0.15 | 88 | 1031.6 |
| 20260507192150 | 59 | 180 | 0.0 | 1.0 | 0.00 | 0.15 | 0.15 | 88 | 1031.4 |
| 20260507191645 | 58 | 352 | 0.0 | 0.0 | 0.00 | 0.15 | 0.15 | 89 | 1031.5 |
| 20260507191142 | 58 | 8 | 0.0 | 0.0 | 0.00 | 0.15 | 0.15 | 92 | 1031.4 |
| 20260507190639 | 59 | 0 | 0.0 | 1.0 | 0.00 | 0.15 | 0.15 | 95 | 1031.3 |
| 20260507190138 | 57 | 346 | 0.0 | 2.0 | 0.00 | 0.15 | 0.15 | 96 | 1031.5 |
| 20260507185636 | 57 | 194 | 0.0 | 1.0 | 0.00 | 0.15 | 0.15 | 97 | 1031.6 |
| 20260507185132 | 56 | 172 | 0.0 | 2.0 | 0.00 | 0.15 | 0.15 | 99 | 1031.3 |
| 20260507184630 | 55 | 180 | 0.0 | 2.0 | 0.00 | 0.15 | 0.15 | 99 | 1031.6 |
| 20260507184128 | 56 | 180 | 0.0 | 2.0 | 0.00 | 0.15 | 0.15 | 99 | 1031.4 |
| 20260507183624 | 56 | 165 | 0.0 | 1.0 | 0.00 | 0.15 | 0.15 | 99 | 1031.6 |
| 20260507183121 | 55 | 165 | 0.0 | 0.0 | 0.00 | 0.15 | 0.15 | 99 | 1031.7 |
| 20260507182618 | 56 | 165 | 1.0 | 2.0 | 0.00 | 0.15 | 0.15 | 99 | 1031.3 |
| 20260507182114 | 55 | 23 | 1.0 | 2.0 | 0.00 | 0.15 | 0.15 | 99 | 1031.8 |
| 20260507181611 | 54 | 157 | 0.0 | 0.0 | 0.00 | 0.15 | 0.15 | 99 | 1031.9 |
| 20260507181107 | 55 | 160 | 1.0 | 1.0 | 0.00 | 0.15 | 0.15 | 99 | 1031.8 |
| 20260507180603 | 54 | 15 | 0.0 | 1.0 | 0.00 | 0.15 | 0.15 | 99 | 1031.8 |
| 20260507180101 | 53 | 151 | 0.0 | 1.0 | 0.00 | 0.15 | 0.15 | 99 | 1031.8 |
| 20260507175556 | 53 | 160 | 0.0 | 1.0 | 0.00 | 0.15 | 0.15 | 99 | 1031.9 |
| 20260507175054 | 54 | 180 | 0.0 | 0.0 | 0.00 | 0.15 | 0.15 | 99 | 1032.1 |
| 20260507174551 | 54 | 0 | 0.0 | 0.0 | 0.00 | 0.15 | 0.15 | 99 | 1032.1 |
| 20260507174049 | 54 | 160 | 0.0 | 0.0 | 0.00 | 0.15 | 0.15 | 99 | 1032.3 |
| 20260507173545 | 53 | 160 | 0.0 | 0.0 | 0.00 | 0.15 | 0.15 | 99 | 1032.2 |
| 20260507173043 | 53 | 160 | 0.0 | 0.0 | 0.00 | 0.15 | 0.15 | 99 | 1032.4 |
| 20260507172538 | 53 | 160 | 0.0 | 1.0 | 0.00 | 0.15 | 0.15 | 99 | 1032.4 |
| 20260507172036 | 52 | 188 | 0.0 | 0.0 | 0.00 | 0.15 | 0.15 | 99 | 1032.3 |
| 20260507171531 | 53 | 180 | 0.0 | 1.0 | 0.00 | 0.15 | 0.15 | 99 | 1032.5 |
| 20260507171028 | 53 | 165 | 0.0 | 2.0 | 0.00 | 0.15 | 0.15 | 99 | 1032.4 |
| 20260507170525 | 53 | 188 | 0.0 | 1.0 | 0.00 | 0.15 | 0.15 | 99 | 1032.1 |
| 20260507170022 | 53 | 172 | 0.0 | 0.0 | 0.00 | 0.15 | 0.15 | 99 | 1032.3 |
| 20260507165518 | 53 | 173 | 0.0 | 2.0 | 0.00 | 0.15 | 0.15 | 99 | 1032.4 |
| 20260507165015 | 53 | 154 | 0.0 | 2.0 | 0.00 | 0.15 | 0.15 | 99 | 1032.2 |
| 20260507164511 | 53 | 173 | 0.0 | 0.0 | 0.00 | 0.15 | 0.15 | 99 | 1032.1 |
| 20260507164008 | 53 | 194 | 0.0 | 1.0 | 0.00 | 0.15 | 0.15 | 99 | 1031.9 |
| 20260507163505 | 52 | 194 | 0.0 | 2.0 | 0.00 | 0.15 | 0.15 | 99 | 1032.1 |
| 20260507163003 | 53 | 180 | 0.0 | 2.0 | 0.00 | 0.15 | 0.15 | 99 | 1032.2 |
| 20260507162457 | 53 | 162 | 0.0 | 1.0 | 0.00 | 0.15 | 0.15 | 99 | 1031.9 |
| 20260507161954 | 53 | 148 | 1.0 | 2.0 | 0.00 | 0.15 | 0.15 | 99 | 1032.1 |
| 20260507161451 | 53 | 180 | 0.0 | 0.0 | 0.00 | 0.15 | 0.15 | 99 | 1031.8 |
| 20260507160948 | 53 | 188 | 0.0 | 2.0 | 0.00 | 0.15 | 0.15 | 99 | 1031.9 |
| 20260507160444 | 53 | 172 | 0.0 | 2.0 | 0.00 | 0.15 | 0.15 | 99 | 1031.9 |
| 20260507155939 | 53 | 148 | 2.0 | 3.0 | 0.00 | 0.15 | 0.15 | 99 | 1031.5 |
| 20260507155436 | 53 | 157 | 1.0 | 1.0 | 0.00 | 0.15 | 0.15 | 99 | 1031.8 |
| 20260507154933 | 53 | 157 | 1.0 | 2.0 | 0.00 | 0.15 | 0.15 | 99 | 1031.8 |
| 20260507154429 | 53 | 166 | 3.0 | 3.0 | 0.00 | 0.15 | 0.15 | 99 | 1031.6 |
| 20260507153927 | 53 | 156 | 2.0 | 2.0 | 0.00 | 0.15 | 0.15 | 99 | 1031.5 |
| 20260507153423 | 53 | 154 | 2.0 | 3.0 | 0.00 | 0.15 | 0.15 | 99 | 1031.8 |
| 20260507152919 | 53 | 160 | 0.0 | 2.0 | 0.02 | 0.15 | 0.15 | 99 | 1031.7 |
| 20260507152416 | 53 | 166 | 3.0 | 3.0 | 0.02 | 0.15 | 0.15 | 99 | 1031.6 |
| 20260507151912 | 54 | 175 | 2.0 | 3.0 | 0.00 | 0.15 | 0.15 | 99 | 1031.5 |
| 20260507151409 | 55 | 144 | 2.0 | 2.0 | 0.00 | 0.15 | 0.15 | 99 | 1031.5 |
| 20260507150906 | 54 | 180 | 0.0 | 1.0 | 0.00 | 0.15 | 0.15 | 99 | 1031.5 |
| 20260507150402 | 54 | 180 | 1.0 | 2.0 | 0.00 | 0.15 | 0.15 | 99 | 1031.3 |
| 20260507145859 | 54 | 174 | 3.0 | 3.0 | 0.02 | 0.15 | 0.15 | 99 | 1031.3 |
| 20260507145355 | 54 | 175 | 2.0 | 2.0 | 0.02 | 0.14 | 0.14 | 99 | 1031.5 |
| 20260507144852 | 54 | 180 | 0.0 | 2.0 | 0.00 | 0.14 | 0.14 | 99 | 1031.5 |
| 20260507144349 | 54 | 160 | 1.0 | 2.0 | 0.00 | 0.14 | 0.14 | 99 | 1031.4 |
| 20260507143846 | 54 | 180 | 0.0 | 2.0 | 0.00 | 0.14 | 0.14 | 99 | 1031.5 |
| 20260507143343 | 54 | 180 | 1.0 | 1.0 | 0.02 | 0.14 | 0.14 | 99 | 1031.2 |
| 20260507142839 | 54 | 165 | 0.0 | 1.0 | 0.02 | 0.14 | 0.14 | 99 | 1031.1 |
| 20260507142336 | 54 | 160 | 1.0 | 2.0 | 0.00 | 0.13 | 0.13 | 99 | 1031.1 |
| 20260507141832 | 54 | 169 | 1.0 | 2.0 | 0.00 | 0.13 | 0.13 | 99 | 1030.8 |
| 20260507141329 | 54 | 157 | 0.0 | 0.0 | 0.00 | 0.13 | 0.13 | 99 | 1030.8 |
| 20260507140825 | 54 | 165 | 0.0 | 2.0 | 0.00 | 0.13 | 0.13 | 99 | 1030.8 |
| 20260507140322 | 54 | 180 | 0.0 | 2.0 | 0.00 | 0.13 | 0.13 | 99 | 1030.9 |
| 20260507135820 | 54 | 166 | 0.0 | 2.0 | 0.02 | 0.13 | 0.13 | 99 | 1031.0 |
| 20260507135317 | 55 | 157 | 0.0 | 1.0 | 0.00 | 0.13 | 0.13 | 99 | 1031.0 |
| 20260507134814 | 54 | 165 | 0.0 | 2.0 | 0.00 | 0.13 | 0.13 | 99 | 1031.0 |
| 20260507134310 | 54 | 162 | 0.0 | 2.0 | 0.02 | 0.13 | 0.13 | 99 | 1030.7 |
| 20260507133806 | 54 | 172 | 0.0 | 1.0 | 0.00 | 0.13 | 0.13 | 99 | 1030.5 |
| 20260507133302 | 54 | 166 | 0.0 | 1.0 | 0.02 | 0.13 | 0.13 | 99 | 1030.9 |
| 20260507132800 | 54 | 165 | 0.0 | 1.0 | 0.02 | 0.13 | 0.13 | 99 | 1030.8 |
| 20260507132256 | 54 | 157 | 0.0 | 2.0 | 0.02 | 0.12 | 0.12 | 99 | 1030.9 |
| 20260507131754 | 54 | 151 | 1.0 | 1.0 | 0.05 | 0.12 | 0.12 | 99 | 1030.7 |
| 20260507131251 | 54 | 165 | 0.0 | 1.0 | 0.02 | 0.12 | 0.12 | 99 | 1030.9 |
| 20260507130747 | 54 | 145 | 0.0 | 2.0 | 0.02 | 0.11 | 0.11 | 99 | 1030.6 |
| 20260507130245 | 54 | 180 | 0.0 | 1.0 | 0.02 | 0.11 | 0.11 | 99 | 1030.9 |
| 20260507125743 | 54 | 162 | 0.0 | 1.0 | 0.00 | 0.11 | 0.11 | 99 | 1031.2 |
| 20260507125241 | 55 | 172 | 0.0 | 2.0 | 0.00 | 0.11 | 0.11 | 99 | 1030.9 |
| 20260507124737 | 54 | 165 | 0.0 | 1.0 | 0.00 | 0.11 | 0.11 | 99 | 1030.9 |
| 20260507124234 | 55 | 172 | 0.0 | 1.0 | 0.00 | 0.11 | 0.11 | 99 | 1030.8 |
| 20260507123732 | 54 | 172 | 0.0 | 1.0 | 0.00 | 0.11 | 0.11 | 99 | 1030.9 |
| 20260507123230 | 54 | 165 | 0.0 | 2.0 | 0.00 | 0.11 | 0.11 | 99 | 1031.0 |
| 20260507122725 | 54 | 160 | 1.0 | 1.0 | 0.00 | 0.11 | 0.11 | 99 | 1030.8 |
| 20260507122221 | 54 | 165 | 0.0 | 0.0 | 0.00 | 0.11 | 0.11 | 99 | 1030.6 |
| 20260507121717 | 54 | 165 | 0.0 | 1.0 | 0.00 | 0.11 | 0.11 | 99 | 1030.7 |
| 20260507121213 | 54 | 165 | 0.0 | 0.0 | 0.02 | 0.11 | 0.11 | 99 | 1030.7 |
| 20260507120709 | 54 | 160 | 0.0 | 2.0 | 0.00 | 0.11 | 0.11 | 99 | 1031.0 |
| 20260507120206 | 54 | 157 | 0.0 | 2.0 | 0.00 | 0.11 | 0.11 | 99 | 1030.6 |
| 20260507115702 | 54 | 157 | 0.0 | 0.0 | 0.00 | 0.11 | 0.11 | 99 | 1030.7 |
| 20260507115158 | 54 | 154 | 2.0 | 2.0 | 0.00 | 0.11 | 0.11 | 99 | 1030.6 |
| 20260507114654 | 54 | 180 | 0.0 | 1.0 | 0.00 | 0.11 | 0.11 | 99 | 1030.6 |
| 20260507114152 | 54 | 166 | 1.0 | 3.0 | 0.00 | 0.11 | 0.11 | 99 | 1030.6 |
| 20260507113649 | 54 | 172 | 0.0 | 2.0 | 0.02 | 0.11 | 0.11 | 99 | 1030.2 |
| 20260507113145 | 54 | 165 | 2.0 | 2.0 | 0.02 | 0.11 | 0.11 | 99 | 1029.6 |
| 20260507112643 | 54 | 160 | 0.0 | 2.0 | 0.00 | 0.10 | 0.10 | 99 | 1030.0 |
| 20260507112140 | 55 | 180 | 0.0 | 1.0 | 0.00 | 0.10 | 0.10 | 99 | 1030.1 |
| 20260507111637 | 55 | 173 | 0.0 | 0.0 | 0.00 | 0.10 | 0.10 | 99 | 1029.8 |
| 20260507111133 | 55 | 165 | 0.0 | 2.0 | 0.00 | 0.10 | 0.10 | 99 | 1030.1 |
| 20260507110630 | 55 | 157 | 0.0 | 1.0 | 0.00 | 0.10 | 0.10 | 99 | 1029.7 |
| 20260507110127 | 55 | 151 | 1.0 | 2.0 | 0.02 | 0.10 | 0.10 | 99 | 1030.2 |
| 20260507105624 | 55 | 172 | 0.0 | 1.0 | 0.02 | 0.10 | 0.10 | 99 | 1030.3 |
| 20260507105119 | 55 | 165 | 0.0 | 1.0 | 0.00 | 0.10 | 0.10 | 99 | 1030.1 |
| 20260507104617 | 55 | 168 | 1.0 | 2.0 | 0.00 | 0.10 | 0.10 | 99 | 1030.3 |
| 20260507104113 | 55 | 172 | 0.0 | 0.0 | 0.00 | 0.10 | 0.10 | 99 | 1030.0 |
| 20260507103609 | 55 | 172 | 0.0 | 0.0 | 0.00 | 0.10 | 0.10 | 99 | 1030.1 |
| 20260507103106 | 55 | 172 | 0.0 | 0.0 | 0.00 | 0.10 | 0.10 | 99 | 1030.2 |
| 20260507102603 | 55 | 172 | 0.0 | 0.0 | 0.02 | 0.10 | 0.10 | 99 | 1030.3 |
| 20260507102059 | 55 | 172 | 0.0 | 0.0 | 0.07 | 0.10 | 0.10 | 99 | 1030.2 |
| 20260507101555 | 55 | 172 | 0.0 | 0.0 | 0.05 | 0.09 | 0.09 | 99 | 1030.5 |
| 20260507101051 | 55 | 172 | 0.0 | 0.0 | 0.02 | 0.09 | 0.09 | 99 | 1030.5 |
| 20260507100548 | 55 | 165 | 0.0 | 0.0 | 0.00 | 0.08 | 0.08 | 99 | 1030.2 |
| 20260507100047 | 55 | 157 | 0.0 | 1.0 | 0.00 | 0.08 | 0.08 | 99 | 1030.1 |
| 20260507095544 | 55 | 172 | 0.0 | 0.0 | 0.00 | 0.08 | 0.08 | 99 | 1029.8 |
| 20260507095041 | 55 | 172 | 0.0 | 0.0 | 0.00 | 0.08 | 0.08 | 99 | 1030.1 |
| 20260507094537 | 55 | 180 | 0.0 | 0.0 | 0.00 | 0.08 | 0.08 | 99 | 1030.0 |
| 20260507094034 | 55 | 173 | 0.0 | 2.0 | 0.02 | 0.08 | 0.08 | 99 | 1029.5 |
| 20260507093531 | 55 | 180 | 0.0 | 1.0 | 0.02 | 0.08 | 0.08 | 99 | 1029.6 |
| 20260507093030 | 55 | 168 | 0.0 | 1.0 | 0.05 | 0.08 | 0.08 | 99 | 1029.7 |
| 20260507092526 | 55 | 173 | 0.0 | 0.0 | 0.17 | 0.08 | 0.08 | 99 | 1029.7 |
| 20260507092023 | 55 | 173 | 0.0 | 0.0 | 0.21 | 0.07 | 0.07 | 99 | 1029.6 |
| 20260507091520 | 55 | 180 | 0.0 | 1.0 | 0.17 | 0.05 | 0.05 | 99 | 1030.0 |
| 20260507091015 | 55 | 154 | 2.0 | 2.0 | 0.09 | 0.03 | 0.03 | 99 | 1030.1 |
| 20260507090512 | 56 | 195 | 1.0 | 2.0 | 0.00 | 0.02 | 0.02 | 99 | 1030.3 |
| 20260507090009 | 56 | 165 | 0.0 | 2.0 | 0.00 | 0.02 | 0.02 | 99 | 1030.4 |
| 20260507085506 | 56 | 172 | 0.0 | 1.0 | 0.00 | 0.02 | 0.02 | 99 | 1029.7 |
| 20260507085002 | 56 | 173 | 0.0 | 2.0 | 0.00 | 0.02 | 0.02 | 99 | 1029.7 |
| 20260507084459 | 56 | 180 | 0.0 | 1.0 | 0.02 | 0.02 | 0.02 | 99 | 1029.7 |
| 20260507083956 | 56 | 172 | 0.0 | 0.0 | 0.02 | 0.02 | 0.02 | 99 | 1029.4 |
| 20260507083452 | 56 | 15 | 0.0 | 0.0 | 0.00 | 0.01 | 0.01 | 99 | 1029.7 |
| 20260507082949 | 56 | 173 | 0.0 | 0.0 | 0.00 | 0.01 | 0.01 | 99 | 1029.7 |
| 20260507082445 | 56 | 173 | 0.0 | 1.0 | 0.00 | 0.01 | 0.01 | 99 | 1029.6 |
| 20260507081941 | 56 | 180 | 0.0 | 0.0 | 0.00 | 0.01 | 0.01 | 99 | 1029.6 |
| 20260507081438 | 56 | 180 | 0.0 | 0.0 | 0.00 | 0.01 | 0.01 | 99 | 1029.8 |
| 20260507080935 | 56 | 180 | 0.0 | 1.0 | 0.00 | 0.01 | 0.01 | 99 | 1030.2 |
| 20260507080431 | 56 | 180 | 0.0 | 1.0 | 0.00 | 0.01 | 0.01 | 99 | 1029.7 |
| 20260507075926 | 56 | 140 | 0.0 | 0.0 | 0.00 | 0.01 | 0.01 | 99 | 1029.6 |
| 20260507075423 | 56 | 165 | 0.0 | 0.0 | 0.00 | 0.01 | 0.01 | 99 | 1029.5 |
| 20260507074920 | 56 | 157 | 0.0 | 1.0 | 0.00 | 0.01 | 0.01 | 99 | 1030.0 |
| 20260507074416 | 56 | 173 | 0.0 | 1.0 | 0.00 | 0.01 | 0.01 | 99 | 1030.1 |
| 20260507073914 | 56 | 352 | 0.0 | 0.0 | 0.02 | 0.01 | 0.01 | 99 | 1030.0 |
| 20260507073410 | 56 | 180 | 0.0 | 0.0 | 0.02 | 0.01 | 0.01 | 99 | 1030.0 |
| 20260507072908 | 56 | 180 | 0.0 | 0.0 | 0.00 | 0.01 | 0.01 | 99 | 1029.8 |
| 20260507072405 | 56 | 158 | 2.0 | 2.0 | 0.00 | 0.01 | 0.01 | 99 | 1029.1 |
| 20260507071902 | 57 | 160 | 0.0 | 0.0 | 0.00 | 0.01 | 0.01 | 99 | 1029.7 |
| 20260507071359 | 57 | 173 | 0.0 | 1.0 | 0.00 | 0.01 | 0.01 | 99 | 1030.2 |
| 20260507070855 | 57 | 157 | 0.0 | 1.0 | 0.02 | 0.01 | 0.01 | 99 | 1030.3 |
| 20260507070353 | 57 | 168 | 0.0 | 0.0 | 0.00 | 0.00 | 0.00 | 99 | 1030.3 |
| 20260507065850 | 57 | 168 | 0.0 | 0.0 | 0.00 | 0.00 | 0.00 | 99 | 1030.6 |
| 20260507065346 | 57 | 190 | 0.0 | 2.0 | 0.00 | 0.00 | 0.00 | 99 | 1030.5 |
| 20260507064843 | 58 | 206 | 1.0 | 2.0 | 0.00 | 0.00 | 0.00 | 99 | 1030.5 |
| 20260507064342 | 58 | 198 | 0.0 | 2.0 | 0.00 | 0.00 | 0.00 | 99 | 1030.3 |
| 20260507063839 | 59 | 164 | 2.0 | 2.0 | 0.00 | 0.00 | 0.00 | 99 | 1029.8 |
| 20260507063336 | 59 | 186 | 0.0 | 2.0 | 0.00 | 0.00 | 0.00 | 99 | 1029.8 |
| 20260507062832 | 59 | 194 | 0.0 | 3.0 | 0.00 | 0.00 | 0.00 | 99 | 1029.4 |
| 20260507062329 | 60 | 188 | 0.0 | 3.0 | 0.00 | 0.00 | 0.00 | 99 | 1029.6 |
| 20260507061828 | 61 | 201 | 0.0 | 2.0 | 0.00 | 0.00 | 0.00 | 99 | 1029.6 |
| 20260507061325 | 61 | 159 | 2.0 | 2.0 | 0.00 | 0.00 | 0.00 | 99 | 1029.2 |
| 20260507060824 | 61 | 180 | 0.0 | 0.0 | 0.00 | 0.00 | 0.00 | 99 | 1029.1 |
| 20260507060320 | 61 | 188 | 0.0 | 0.0 | 0.00 | 0.00 | 0.00 | 99 | 1029.3 |
| 20260507055817 | 61 | 188 | 0.0 | 0.0 | 0.00 | 0.00 | 0.00 | 99 | 1029.5 |
| 20260507055312 | 61 | 180 | 0.0 | 2.0 | 0.00 | 0.00 | 0.00 | 99 | 1030.0 |
| 20260507054809 | 62 | 169 | 0.0 | 3.0 | 0.00 | 0.00 | 0.00 | 99 | 1029.6 |
| 20260507054305 | 62 | 203 | 1.0 | 2.0 | 0.00 | 0.00 | 0.00 | 99 | 1029.8 |
| 20260507053802 | 62 | 195 | 0.0 | 1.0 | 0.00 | 0.00 | 0.00 | 99 | 1029.8 |
| 20260507053300 | 62 | 180 | 0.0 | 0.0 | 0.00 | 0.00 | 0.00 | 99 | 1030.1 |
| 20260507052759 | 62 | 187 | 0.0 | 2.0 | 0.00 | 0.00 | 0.00 | 99 | 1030.1 |
| 20260507052255 | 62 | 165 | 0.0 | 0.0 | 0.00 | 0.00 | 0.00 | 99 | 1029.8 |
| 20260507051753 | 62 | 165 | 0.0 | 0.0 | 0.02 | 0.00 | 0.00 | 99 | 1030.0 |
| 20260507051249 | 62 | 165 | 0.0 | 0.0 | 0.02 | 0.00 | 0.00 | 99 | 1029.8 |
| 20260507050747 | 62 | 165 | 0.0 | 2.0 | 0.00 | 0.00 | 0.00 | 99 | 1030.1 |
| 20260507050243 | 62 | 180 | 0.0 | 2.0 | 0.00 | 0.00 | 0.00 | 99 | 1030.2 |
| 20260507045740 | 62 | 0 | 0.0 | 0.0 | 0.00 | 0.00 | 0.00 | 99 | 1030.0 |
| 20260507045236 | 62 | 0 | 0.0 | 1.0 | 0.00 | 0.00 | 0.00 | 99 | 1029.4 |
| 20260507044734 | 62 | 353 | 0.0 | 2.0 | 0.00 | 0.00 | 0.00 | 99 | 1029.4 |
| 20260507044230 | 62 | 0 | 1.0 | 2.0 | 0.00 | 0.00 | 0.00 | 99 | 1030.0 |
| 20260507043726 | 62 | 345 | 0.0 | 3.0 | 0.00 | 0.00 | 0.00 | 99 | 1030.0 |
| 20260507043223 | 62 | 0 | 0.0 | 0.0 | 0.00 | 0.00 | 0.00 | 99 | 1030.3 |
| 20260507042719 | 62 | 0 | 0.0 | 2.0 | 0.00 | 0.00 | 0.00 | 99 | 1030.1 |
| 20260507042214 | 62 | 140 | 0.0 | 4.0 | 0.00 | 0.00 | 0.00 | 99 | 1029.8 |